sensor_id;sensor_type;location;lat;lon;timestamp;temperature;humidity
79491;SHT31;73788;53.048;18.472;2024-01-15T00:00:07;1.70;82.80
79491;SHT31;73788;53.048;18.472;2024-01-15T00:03:00;1.69;82.80
79491;SHT31;73788;53.048;18.472;2024-01-15T00:05:32;1.71;82.81
79491;SHT31;73788;53.048;18.472;2024-01-15T00:08:04;1.70;82.83
79491;SHT31;73788;53.048;18.472;2024-01-15T00:10:36;1.69;82.84
79491;SHT31;73788;53.048;18.472;2024-01-15T00:13:09;1.69;82.86
79491;SHT31;73788;53.048;18.472;2024-01-15T00:16:01;1.68;82.88
79491;SHT31;73788;53.048;18.472;2024-01-15T00:18:33;1.68;82.88
79491;SHT31;73788;53.048;18.472;2024-01-15T00:21:04;1.68;82.88
79491;SHT31;73788;53.048;18.472;2024-01-15T00:23:39;1.67;82.90
79491;SHT31;73788;53.048;18.472;2024-01-15T00:26:13;1.64;82.90
79491;SHT31;73788;53.048;18.472;2024-01-15T00:28:46;1.62;82.90
79491;SHT31;73788;53.048;18.472;2024-01-15T00:31:18;1.60;82.90
79491;SHT31;73788;53.048;18.472;2024-01-15T00:33:49;1.59;82.90
79491;SHT31;73788;53.048;18.472;2024-01-15T00:36:20;1.61;82.90
79491;SHT31;73788;53.048;18.472;2024-01-15T00:38:51;1.58;82.90
79491;SHT31;73788;53.048;18.472;2024-01-15T00:41:22;1.58;82.90
79491;SHT31;73788;53.048;18.472;2024-01-15T00:43:55;1.55;82.90
79491;SHT31;73788;53.048;18.472;2024-01-15T00:46:26;1.54;82.90
79491;SHT31;73788;53.048;18.472;2024-01-15T00:48:57;1.54;82.93
79491;SHT31;73788;53.048;18.472;2024-01-15T00:51:27;1.55;82.94
79491;SHT31;73788;53.048;18.472;2024-01-15T00:53:57;1.55;82.98
79491;SHT31;73788;53.048;18.472;2024-01-15T00:56:27;1.57;83.00
79491;SHT31;73788;53.048;18.472;2024-01-15T00:58:59;1.57;83.00
79491;SHT31;73788;53.048;18.472;2024-01-15T01:01:51;1.59;83.00
79491;SHT31;73788;53.048;18.472;2024-01-15T01:04:23;1.61;83.00
79491;SHT31;73788;53.048;18.472;2024-01-15T01:06:54;1.62;83.01
79491;SHT31;73788;53.048;18.472;2024-01-15T01:09:25;1.64;83.01
79491;SHT31;73788;53.048;18.472;2024-01-15T01:11:59;1.65;83.02
79491;SHT31;73788;53.048;18.472;2024-01-15T01:14:30;1.65;83.02
79491;SHT31;73788;53.048;18.472;2024-01-15T01:17:02;1.67;83.07
79491;SHT31;73788;53.048;18.472;2024-01-15T01:19:35;1.66;83.08
79491;SHT31;73788;53.048;18.472;2024-01-15T01:22:07;1.66;83.08
79491;SHT31;73788;53.048;18.472;2024-01-15T01:24:38;1.67;83.10
79491;SHT31;73788;53.048;18.472;2024-01-15T01:27:09;1.67;83.10
79491;SHT31;73788;53.048;18.472;2024-01-15T01:29:40;1.66;83.10
79491;SHT31;73788;53.048;18.472;2024-01-15T01:32:12;1.65;83.10
79491;SHT31;73788;53.048;18.472;2024-01-15T01:35:03;1.66;83.10
79491;SHT31;73788;53.048;18.472;2024-01-15T01:37:34;1.68;83.11
79491;SHT31;73788;53.048;18.472;2024-01-15T01:40:07;1.68;83.10
79491;SHT31;73788;53.048;18.472;2024-01-15T01:42:39;1.69;83.12
79491;SHT31;73788;53.048;18.472;2024-01-15T01:45:12;1.68;83.14
79491;SHT31;73788;53.048;18.472;2024-01-15T01:47:44;1.69;83.16
79491;SHT31;73788;53.048;18.472;2024-01-15T01:50:14;1.71;83.18
79491;SHT31;73788;53.048;18.472;2024-01-15T01:52:45;1.73;83.20
79491;SHT31;73788;53.048;18.472;2024-01-15T01:55:37;1.74;83.20
79491;SHT31;73788;53.048;18.472;2024-01-15T01:58:10;1.75;83.20
79491;SHT31;73788;53.048;18.472;2024-01-15T02:00:41;1.77;83.20
79491;SHT31;73788;53.048;18.472;2024-01-15T02:03:13;1.78;83.20
79491;SHT31;73788;53.048;18.472;2024-01-15T02:06:04;1.79;83.21
79491;SHT31;73788;53.048;18.472;2024-01-15T02:08:37;1.77;83.21
79491;SHT31;73788;53.048;18.472;2024-01-15T02:11:12;1.75;83.23
79491;SHT31;73788;53.048;18.472;2024-01-15T02:13:46;1.73;83.23
79491;SHT31;73788;53.048;18.472;2024-01-15T02:16:18;1.70;83.23
79491;SHT31;73788;53.048;18.472;2024-01-15T02:18:54;1.69;83.26
79491;SHT31;73788;53.048;18.472;2024-01-15T02:21:26;1.70;83.29
79491;SHT31;73788;53.048;18.472;2024-01-15T02:23:58;1.71;83.28
79491;SHT31;73788;53.048;18.472;2024-01-15T02:26:29;1.70;83.30
79491;SHT31;73788;53.048;18.472;2024-01-15T02:29:04;1.68;83.30
79491;SHT31;73788;53.048;18.472;2024-01-15T02:31:55;1.66;83.30
79491;SHT31;73788;53.048;18.472;2024-01-15T02:34:25;1.64;83.30
79491;SHT31;73788;53.048;18.472;2024-01-15T02:37:04;1.62;83.30
79491;SHT31;73788;53.048;18.472;2024-01-15T02:39:37;1.64;83.30
79491;SHT31;73788;53.048;18.472;2024-01-15T02:42:08;1.64;83.30
79491;SHT31;73788;53.048;18.472;2024-01-15T02:44:36;1.66;83.30
79491;SHT31;73788;53.048;18.472;2024-01-15T02:47:05;1.68;83.32
79491;SHT31;73788;53.048;18.472;2024-01-15T02:49:33;1.67;83.31
79491;SHT31;73788;53.048;18.472;2024-01-15T02:52:01;1.69;83.33
79491;SHT31;73788;53.048;18.472;2024-01-15T02:54:33;1.69;83.36
79491;SHT31;73788;53.048;18.472;2024-01-15T02:57:04;1.69;83.38
79491;SHT31;73788;53.048;18.472;2024-01-15T02:59:35;1.69;83.40
79491;SHT31;73788;53.048;18.472;2024-01-15T03:02:07;1.69;83.40
79491;SHT31;73788;53.048;18.472;2024-01-15T03:04:42;1.68;83.40
79491;SHT31;73788;53.048;18.472;2024-01-15T03:07:14;1.68;83.40
79491;SHT31;73788;53.048;18.472;2024-01-15T03:09:47;1.69;83.40
79491;SHT31;73788;53.048;18.472;2024-01-15T03:12:19;1.71;83.40
79491;SHT31;73788;53.048;18.472;2024-01-15T03:14:51;1.69;83.40
79491;SHT31;73788;53.048;18.472;2024-01-15T03:17:23;1.65;83.40
79491;SHT31;73788;53.048;18.472;2024-01-15T03:19:56;1.64;83.40
79491;SHT31;73788;53.048;18.472;2024-01-15T03:22:27;1.64;83.41
79491;SHT31;73788;53.048;18.472;2024-01-15T03:24:54;1.62;83.40
79491;SHT31;73788;53.048;18.472;2024-01-15T03:27:22;1.61;83.41
79491;SHT31;73788;53.048;18.472;2024-01-15T03:29:50;1.58;83.41
79491;SHT31;73788;53.048;18.472;2024-01-15T03:32:17;1.58;83.41
79491;SHT31;73788;53.048;18.472;2024-01-15T03:34:46;1.57;83.42
79491;SHT31;73788;53.048;18.472;2024-01-15T03:37:14;1.57;83.44
79491;SHT31;73788;53.048;18.472;2024-01-15T03:39:41;1.59;83.45
79491;SHT31;73788;53.048;18.472;2024-01-15T03:45:35;1.58;83.49
79491;SHT31;73788;53.048;18.472;2024-01-15T03:48:02;1.55;83.49
79491;SHT31;73788;53.048;18.472;2024-01-15T03:50:29;1.51;83.48
79491;SHT31;73788;53.048;18.472;2024-01-15T03:52:57;1.46;83.49
79491;SHT31;73788;53.048;18.472;2024-01-15T03:55:24;1.43;83.50
79491;SHT31;73788;53.048;18.472;2024-01-15T03:57:52;1.39;83.50
79491;SHT31;73788;53.048;18.472;2024-01-15T04:00:19;1.33;83.49
79491;SHT31;73788;53.048;18.472;2024-01-15T04:02:46;1.30;83.49
79491;SHT31;73788;53.048;18.472;2024-01-15T04:05:13;1.27;83.50
79491;SHT31;73788;53.048;18.472;2024-01-15T04:07:40;1.25;83.50
79491;SHT31;73788;53.048;18.472;2024-01-15T04:10:07;1.22;83.50
79491;SHT31;73788;53.048;18.472;2024-01-15T04:12:35;1.19;83.50
79491;SHT31;73788;53.048;18.472;2024-01-15T04:15:03;1.16;83.50
79491;SHT31;73788;53.048;18.472;2024-01-15T04:17:30;1.11;83.50
79491;SHT31;73788;53.048;18.472;2024-01-15T04:19:57;1.08;83.50
79491;SHT31;73788;53.048;18.472;2024-01-15T04:22:26;1.02;83.50
79491;SHT31;73788;53.048;18.472;2024-01-15T04:24:53;0.99;83.50
79491;SHT31;73788;53.048;18.472;2024-01-15T04:27:21;0.98;83.50
79491;SHT31;73788;53.048;18.472;2024-01-15T04:29:48;0.95;83.50
79491;SHT31;73788;53.048;18.472;2024-01-15T04:32:15;0.94;83.50
79491;SHT31;73788;53.048;18.472;2024-01-15T04:34:42;0.92;83.50
79491;SHT31;73788;53.048;18.472;2024-01-15T04:37:10;0.92;83.50
79491;SHT31;73788;53.048;18.472;2024-01-15T04:39:37;0.92;83.50
79491;SHT31;73788;53.048;18.472;2024-01-15T04:42:04;0.92;83.51
79491;SHT31;73788;53.048;18.472;2024-01-15T04:44:31;0.91;83.52
79491;SHT31;73788;53.048;18.472;2024-01-15T04:46:59;0.91;83.52
79491;SHT31;73788;53.048;18.472;2024-01-15T04:49:26;0.90;83.54
79491;SHT31;73788;53.048;18.472;2024-01-15T04:51:53;0.92;83.58
79491;SHT31;73788;53.048;18.472;2024-01-15T04:54:21;0.92;83.60
79491;SHT31;73788;53.048;18.472;2024-01-15T04:56:48;0.91;83.60
79491;SHT31;73788;53.048;18.472;2024-01-15T04:59:15;0.93;83.60
79491;SHT31;73788;53.048;18.472;2024-01-15T05:01:43;0.93;83.60
79491;SHT31;73788;53.048;18.472;2024-01-15T05:04:10;0.94;83.60
79491;SHT31;73788;53.048;18.472;2024-01-15T05:06:37;0.94;83.60
79491;SHT31;73788;53.048;18.472;2024-01-15T05:09:04;0.92;83.60
79491;SHT31;73788;53.048;18.472;2024-01-15T05:11:31;0.91;83.61
79491;SHT31;73788;53.048;18.472;2024-01-15T05:14:06;0.91;83.63
79491;SHT31;73788;53.048;18.472;2024-01-15T05:16:33;0.93;83.65
79491;SHT31;73788;53.048;18.472;2024-01-15T05:19:00;0.94;83.67
79491;SHT31;73788;53.048;18.472;2024-01-15T05:21:27;0.95;83.69
79491;SHT31;73788;53.048;18.472;2024-01-15T05:23:54;0.95;83.70
79491;SHT31;73788;53.048;18.472;2024-01-15T05:26:22;0.95;83.70
79491;SHT31;73788;53.048;18.472;2024-01-15T05:28:49;0.95;83.70
79491;SHT31;73788;53.048;18.472;2024-01-15T05:31:16;0.95;83.70
79491;SHT31;73788;53.048;18.472;2024-01-15T05:33:43;0.93;83.70
79491;SHT31;73788;53.048;18.472;2024-01-15T05:36:11;0.92;83.70
79491;SHT31;73788;53.048;18.472;2024-01-15T05:38:38;0.91;83.71
79491;SHT31;73788;53.048;18.472;2024-01-15T05:41:06;0.87;83.70
79491;SHT31;73788;53.048;18.472;2024-01-15T05:43:33;0.84;83.73
79491;SHT31;73788;53.048;18.472;2024-01-15T05:46:01;0.80;83.71
79491;SHT31;73788;53.048;18.472;2024-01-15T05:48:29;0.74;83.73
79491;SHT31;73788;53.048;18.472;2024-01-15T05:50:56;0.69;83.76
79491;SHT31;73788;53.048;18.472;2024-01-15T05:53:24;0.65;83.75
79491;SHT31;73788;53.048;18.472;2024-01-15T05:55:51;0.65;83.80
79491;SHT31;73788;53.048;18.472;2024-01-15T05:58:18;0.67;83.79
79491;SHT31;73788;53.048;18.472;2024-01-15T06:00:45;0.68;83.80
79491;SHT31;73788;53.048;18.472;2024-01-15T06:03:16;0.68;83.80
79491;SHT31;73788;53.048;18.472;2024-01-15T06:05:44;0.71;83.80
79491;SHT31;73788;53.048;18.472;2024-01-15T06:08:13;0.74;83.80
79491;SHT31;73788;53.048;18.472;2024-01-15T06:10:43;0.76;83.80
79491;SHT31;73788;53.048;18.472;2024-01-15T06:13:10;0.77;83.81
79491;SHT31;73788;53.048;18.472;2024-01-15T06:15:38;0.76;83.82
79491;SHT31;73788;53.048;18.472;2024-01-15T06:18:05;0.76;83.88
79491;SHT31;73788;53.048;18.472;2024-01-15T06:20:32;0.76;83.88
79491;SHT31;73788;53.048;18.472;2024-01-15T06:22:59;0.77;83.88
79491;SHT31;73788;53.048;18.472;2024-01-15T06:25:28;0.78;83.89
79491;SHT31;73788;53.048;18.472;2024-01-15T06:27:56;0.78;83.90
79491;SHT31;73788;53.048;18.472;2024-01-15T06:30:23;0.78;83.90
79491;SHT31;73788;53.048;18.472;2024-01-15T06:32:50;0.78;83.90
79491;SHT31;73788;53.048;18.472;2024-01-15T06:35:17;0.77;83.90
79491;SHT31;73788;53.048;18.472;2024-01-15T06:37:45;0.79;83.90
79491;SHT31;73788;53.048;18.472;2024-01-15T06:40:13;0.80;83.91
79491;SHT31;73788;53.048;18.472;2024-01-15T06:42:40;0.79;83.90
79491;SHT31;73788;53.048;18.472;2024-01-15T06:45:08;0.77;83.90
79491;SHT31;73788;53.048;18.472;2024-01-15T06:47:35;0.79;83.94
79491;SHT31;73788;53.048;18.472;2024-01-15T06:50:03;0.81;83.96
79491;SHT31;73788;53.048;18.472;2024-01-15T07:03:19;0.84;84.00
79491;SHT31;73788;53.048;18.472;2024-01-15T07:05:46;0.86;84.00
79491;SHT31;73788;53.048;18.472;2024-01-15T07:08:13;0.87;84.00
79491;SHT31;73788;53.048;18.472;2024-01-15T07:10:41;0.89;84.01
79491;SHT31;73788;53.048;18.472;2024-01-15T07:13:08;0.89;84.00
79491;SHT31;73788;53.048;18.472;2024-01-15T07:26:22;0.99;84.10
79491;SHT31;73788;53.048;18.472;2024-01-15T07:28:51;1.02;84.10
79491;SHT31;73788;53.048;18.472;2024-01-15T07:31:18;1.05;84.10
79491;SHT31;73788;53.048;18.472;2024-01-15T07:37:11;1.13;84.10
79491;SHT31;73788;53.048;18.472;2024-01-15T07:39:39;1.21;84.11
79491;SHT31;73788;53.048;18.472;2024-01-15T07:42:07;1.21;84.12
79491;SHT31;73788;53.048;18.472;2024-01-15T07:44:35;1.18;84.11
79491;SHT31;73788;53.048;18.472;2024-01-15T07:47:23;1.19;84.14
79491;SHT31;73788;53.048;18.472;2024-01-15T07:49:51;1.16;84.14
79491;SHT31;73788;53.048;18.472;2024-01-15T07:52:18;1.15;84.13
79491;SHT31;73788;53.048;18.472;2024-01-15T07:55:06;1.13;84.17
79491;SHT31;73788;53.048;18.472;2024-01-15T07:57:34;1.12;84.16
79491;SHT31;73788;53.048;18.472;2024-01-15T08:00:02;1.11;84.15
79491;SHT31;73788;53.048;18.472;2024-01-15T08:02:32;1.12;84.18
79491;SHT31;73788;53.048;18.472;2024-01-15T08:04:59;1.13;84.19
79491;SHT31;73788;53.048;18.472;2024-01-15T08:07:26;1.14;84.19
79491;SHT31;73788;53.048;18.472;2024-01-15T08:09:54;1.18;84.19
79491;SHT31;73788;53.048;18.472;2024-01-15T08:12:21;1.21;84.20
79491;SHT31;73788;53.048;18.472;2024-01-15T08:14:50;1.26;84.20
79491;SHT31;73788;53.048;18.472;2024-01-15T08:17:38;1.30;84.20
79491;SHT31;73788;53.048;18.472;2024-01-15T08:20:05;1.36;84.20
79491;SHT31;73788;53.048;18.472;2024-01-15T08:22:33;1.43;84.20
79491;SHT31;73788;53.048;18.472;2024-01-15T08:25:00;1.48;84.23
79491;SHT31;73788;53.048;18.472;2024-01-15T08:27:28;1.57;84.22
79491;SHT31;73788;53.048;18.472;2024-01-15T08:29:56;1.89;84.30
79491;SHT31;73788;53.048;18.472;2024-01-15T08:32:23;2.13;84.30
79491;SHT31;73788;53.048;18.472;2024-01-15T08:35:11;2.15;84.30
79491;SHT31;73788;53.048;18.472;2024-01-15T08:37:38;2.05;84.30
79491;SHT31;73788;53.048;18.472;2024-01-15T08:40:08;1.91;84.30
79491;SHT31;73788;53.048;18.472;2024-01-15T08:42:37;1.79;84.30
79491;SHT31;73788;53.048;18.472;2024-01-15T08:45:26;1.74;84.30
79491;SHT31;73788;53.048;18.472;2024-01-15T08:47:53;1.71;84.29
79491;SHT31;73788;53.048;18.472;2024-01-15T08:50:20;1.72;84.30
79491;SHT31;73788;53.048;18.472;2024-01-15T08:52:47;1.77;84.28
79491;SHT31;73788;53.048;18.472;2024-01-15T08:55:14;1.85;84.30
79491;SHT31;73788;53.048;18.472;2024-01-15T08:58:27;2.09;84.30
79491;SHT31;73788;53.048;18.472;2024-01-15T09:00:57;2.28;84.30
79491;SHT31;73788;53.048;18.472;2024-01-15T09:03:25;2.41;84.31
79491;SHT31;73788;53.048;18.472;2024-01-15T09:05:52;2.51;84.33
79491;SHT31;73788;53.048;18.472;2024-01-15T09:08:25;2.66;84.35
79491;SHT31;73788;53.048;18.472;2024-01-15T09:10:55;2.71;84.39
79491;SHT31;73788;53.048;18.472;2024-01-15T09:13:22;2.73;84.38
79491;SHT31;73788;53.048;18.472;2024-01-15T09:15:50;2.68;84.36
79491;SHT31;73788;53.048;18.472;2024-01-15T09:18:17;2.53;84.30
79491;SHT31;73788;53.048;18.472;2024-01-15T09:20:44;2.27;84.30
79491;SHT31;73788;53.048;18.472;2024-01-15T09:23:12;2.12;84.30
79491;SHT31;73788;53.048;18.472;2024-01-15T09:25:54;2.05;84.30
79491;SHT31;73788;53.048;18.472;2024-01-15T09:28:21;2.06;84.30
79491;SHT31;73788;53.048;18.472;2024-01-15T09:30:49;2.15;84.30
79491;SHT31;73788;53.048;18.472;2024-01-15T09:33:17;2.29;84.30
79491;SHT31;73788;53.048;18.472;2024-01-15T09:35:44;2.45;84.30
79491;SHT31;73788;53.048;18.472;2024-01-15T09:38:11;2.56;84.30
79491;SHT31;73788;53.048;18.472;2024-01-15T09:40:39;2.56;84.29
79491;SHT31;73788;53.048;18.472;2024-01-15T09:43:12;2.38;84.29
79491;SHT31;73788;53.048;18.472;2024-01-15T09:45:42;2.31;84.30
79491;SHT31;73788;53.048;18.472;2024-01-15T09:48:10;2.36;84.30
79491;SHT31;73788;53.048;18.472;2024-01-15T09:50:39;2.40;84.30
79491;SHT31;73788;53.048;18.472;2024-01-15T09:53:06;2.36;84.25
79491;SHT31;73788;53.048;18.472;2024-01-15T09:55:33;2.22;84.22
79491;SHT31;73788;53.048;18.472;2024-01-15T09:58:01;2.21;84.21
79491;SHT31;73788;53.048;18.472;2024-01-15T10:00:29;2.31;84.20
79491;SHT31;73788;53.048;18.472;2024-01-15T10:03:00;2.39;84.21
79491;SHT31;73788;53.048;18.472;2024-01-15T10:05:28;2.44;84.21
79491;SHT31;73788;53.048;18.472;2024-01-15T10:07:56;2.45;84.20
79491;SHT31;73788;53.048;18.472;2024-01-15T10:10:24;2.34;84.20
79491;SHT31;73788;53.048;18.472;2024-01-15T10:12:51;2.24;84.19
79491;SHT31;73788;53.048;18.472;2024-01-15T10:15:23;2.29;84.20
79491;SHT31;73788;53.048;18.472;2024-01-15T10:17:50;2.43;84.19
79491;SHT31;73788;53.048;18.472;2024-01-15T10:20:17;2.56;84.20
79491;SHT31;73788;53.048;18.472;2024-01-15T10:22:45;2.54;84.20
79491;SHT31;73788;53.048;18.472;2024-01-15T10:25:15;2.56;84.19
79491;SHT31;73788;53.048;18.472;2024-01-15T10:27:52;2.64;84.19
79491;SHT31;73788;53.048;18.472;2024-01-15T10:30:32;2.63;84.15
79491;SHT31;73788;53.048;18.472;2024-01-15T10:33:03;2.72;84.15
79491;SHT31;73788;53.048;18.472;2024-01-15T10:35:32;2.92;84.19
79491;SHT31;73788;53.048;18.472;2024-01-15T10:38:01;3.08;84.16
79491;SHT31;73788;53.048;18.472;2024-01-15T10:40:29;3.11;84.13
79491;SHT31;73788;53.048;18.472;2024-01-15T10:42:57;3.03;84.10
79491;SHT31;73788;53.048;18.472;2024-01-15T10:45:25;2.93;84.10
79491;SHT31;73788;53.048;18.472;2024-01-15T10:47:53;2.84;84.10
79491;SHT31;73788;53.048;18.472;2024-01-15T10:50:25;2.81;84.08
79491;SHT31;73788;53.048;18.472;2024-01-15T10:52:53;2.77;84.07
79491;SHT31;73788;53.048;18.472;2024-01-15T10:55:21;2.74;84.02
79491;SHT31;73788;53.048;18.472;2024-01-15T10:57:50;2.95;84.03
79491;SHT31;73788;53.048;18.472;2024-01-15T11:00:18;3.48;84.05
79491;SHT31;73788;53.048;18.472;2024-01-15T11:02:47;3.72;84.07
79491;SHT31;73788;53.048;18.472;2024-01-15T11:05:15;4.00;84.07
79491;SHT31;73788;53.048;18.472;2024-01-15T11:07:44;4.00;84.04
79491;SHT31;73788;53.048;18.472;2024-01-15T11:13:20;4.34;84.07
79491;SHT31;73788;53.048;18.472;2024-01-15T11:16:06;4.59;84.00
79491;SHT31;73788;53.048;18.472;2024-01-15T11:18:37;4.19;83.98
79491;SHT31;73788;53.048;18.472;2024-01-15T11:23:42;3.57;83.89
79491;SHT31;73788;53.048;18.472;2024-01-15T11:26:33;3.41;83.86
79491;SHT31;73788;53.048;18.472;2024-01-15T11:29:05;3.12;83.79
79491;SHT31;73788;53.048;18.472;2024-01-15T11:31:59;2.87;83.71
79491;SHT31;73788;53.048;18.472;2024-01-15T11:37:25;2.96;83.70
79491;SHT31;73788;53.048;18.472;2024-01-15T11:39:55;3.04;83.70
79491;SHT31;73788;53.048;18.472;2024-01-15T11:42:37;3.07;83.69
79491;SHT31;73788;53.048;18.472;2024-01-15T11:45:05;3.07;83.64
79491;SHT31;73788;53.048;18.472;2024-01-15T11:47:59;3.18;83.62
79491;SHT31;73788;53.048;18.472;2024-01-15T11:50:29;3.63;83.67
79491;SHT31;73788;53.048;18.472;2024-01-15T11:53:01;4.04;83.68
79491;SHT31;73788;53.048;18.472;2024-01-15T12:06:19;3.86;83.50
79491;SHT31;73788;53.048;18.472;2024-01-15T12:08:46;3.93;83.47
79491;SHT31;73788;53.048;18.472;2024-01-15T12:11:13;4.01;83.44
79491;SHT31;73788;53.048;18.472;2024-01-15T12:13:46;3.87;83.40
79491;SHT31;73788;53.048;18.472;2024-01-15T12:16:14;3.74;83.35
79491;SHT31;73788;53.048;18.472;2024-01-15T12:18:44;3.51;83.30
79491;SHT31;73788;53.048;18.472;2024-01-15T12:21:12;3.28;83.21
79491;SHT31;73788;53.048;18.472;2024-01-15T12:23:41;3.14;83.20
79491;SHT31;73788;53.048;18.472;2024-01-15T12:26:10;3.07;83.17
79491;SHT31;73788;53.048;18.472;2024-01-15T12:28:38;3.08;83.12
79491;SHT31;73788;53.048;18.472;2024-01-15T12:31:06;3.05;83.07
79491;SHT31;73788;53.048;18.472;2024-01-15T12:33:33;3.04;83.01
79491;SHT31;73788;53.048;18.472;2024-01-15T12:36:00;3.28;83.00
79491;SHT31;73788;53.048;18.472;2024-01-15T12:38:28;3.79;83.00
79491;SHT31;73788;53.048;18.472;2024-01-15T12:41:36;3.67;82.99
79491;SHT31;73788;53.048;18.472;2024-01-15T12:44:03;3.42;82.91
79491;SHT31;73788;53.048;18.472;2024-01-15T12:46:31;3.42;82.90
79491;SHT31;73788;53.048;18.472;2024-01-15T12:48:59;3.96;82.90
79491;SHT31;73788;53.048;18.472;2024-01-15T12:51:26;4.54;82.90
79491;SHT31;73788;53.048;18.472;2024-01-15T12:53:54;4.85;82.87
79491;SHT31;73788;53.048;18.472;2024-01-15T12:56:21;5.02;82.82
79491;SHT31;73788;53.048;18.472;2024-01-15T12:58:48;5.24;82.80
79491;SHT31;73788;53.048;18.472;2024-01-15T13:01:15;5.39;82.78
79491;SHT31;73788;53.048;18.472;2024-01-15T13:03:43;4.97;82.70
79491;SHT31;73788;53.048;18.472;2024-01-15T13:06:10;4.52;82.61
79491;SHT31;73788;53.048;18.472;2024-01-15T13:08:37;4.47;82.60
79491;SHT31;73788;53.048;18.472;2024-01-15T13:11:05;4.10;82.51
79491;SHT31;73788;53.048;18.472;2024-01-15T13:13:32;3.74;82.43
79491;SHT31;73788;53.048;18.472;2024-01-15T13:16:01;3.61;82.40
79491;SHT31;73788;53.048;18.472;2024-01-15T13:18:28;3.66;82.36
79491;SHT31;73788;53.048;18.472;2024-01-15T13:20:55;3.80;82.31
79491;SHT31;73788;53.048;18.472;2024-01-15T13:23:23;3.81;82.29
79491;SHT31;73788;53.048;18.472;2024-01-15T13:25:50;3.82;82.22
79491;SHT31;73788;53.048;18.472;2024-01-15T13:28:20;3.57;82.16
79491;SHT31;73788;53.048;18.472;2024-01-15T13:30:48;3.30;82.10
79491;SHT31;73788;53.048;18.472;2024-01-15T13:33:16;3.11;82.00
79491;SHT31;73788;53.048;18.472;2024-01-15T13:35:44;3.07;82.01
79491;SHT31;73788;53.048;18.472;2024-01-15T13:38:11;3.01;81.94
79491;SHT31;73788;53.048;18.472;2024-01-15T13:40:39;2.96;81.90
79491;SHT31;73788;53.048;18.472;2024-01-15T13:43:06;2.93;81.82
79491;SHT31;73788;53.048;18.472;2024-01-15T13:45:34;2.90;81.80
79491;SHT31;73788;53.048;18.472;2024-01-15T13:48:04;2.88;81.74
79491;SHT31;73788;53.048;18.472;2024-01-15T13:50:32;2.86;81.70
79491;SHT31;73788;53.048;18.472;2024-01-15T13:52:59;2.81;81.66
79491;SHT31;73788;53.048;18.472;2024-01-15T13:55:26;2.73;81.60
79491;SHT31;73788;53.048;18.472;2024-01-15T13:57:55;2.60;81.54
79491;SHT31;73788;53.048;18.472;2024-01-15T14:00:22;2.51;81.49
79491;SHT31;73788;53.048;18.472;2024-01-15T14:02:49;2.42;81.43
79491;SHT31;73788;53.048;18.472;2024-01-15T14:05:17;2.35;81.40
79491;SHT31;73788;53.048;18.472;2024-01-15T14:07:44;2.28;81.32
79491;SHT31;73788;53.048;18.472;2024-01-15T14:10:12;2.21;81.30
79491;SHT31;73788;53.048;18.472;2024-01-15T14:12:39;2.11;81.21
79491;SHT31;73788;53.048;18.472;2024-01-15T14:15:07;1.92;81.17
79491;SHT31;73788;53.048;18.472;2024-01-15T14:17:35;1.71;81.10
79491;SHT31;73788;53.048;18.472;2024-01-15T14:20:04;1.51;81.03
79491;SHT31;73788;53.048;18.472;2024-01-15T14:22:32;1.37;80.98
79491;SHT31;73788;53.048;18.472;2024-01-15T14:25:00;1.24;80.91
79491;SHT31;73788;53.048;18.472;2024-01-15T14:27:27;1.09;80.87
79491;SHT31;73788;53.048;18.472;2024-01-15T14:29:54;0.99;80.81
79491;SHT31;73788;53.048;18.472;2024-01-15T14:32:22;0.97;80.80
79491;SHT31;73788;53.048;18.472;2024-01-15T14:34:49;0.96;80.79
79491;SHT31;73788;53.048;18.472;2024-01-15T14:37:17;0.96;80.71
79491;SHT31;73788;53.048;18.472;2024-01-15T14:39:44;0.97;80.70
79491;SHT31;73788;53.048;18.472;2024-01-15T14:42:11;0.98;80.69
79491;SHT31;73788;53.048;18.472;2024-01-15T14:44:39;0.97;80.64
79491;SHT31;73788;53.048;18.472;2024-01-15T14:47:07;0.96;80.61
79491;SHT31;73788;53.048;18.472;2024-01-15T14:49:34;0.94;80.59
79491;SHT31;73788;53.048;18.472;2024-01-15T14:52:02;0.94;80.57
79491;SHT31;73788;53.048;18.472;2024-01-15T14:54:30;0.99;80.53
79491;SHT31;73788;53.048;18.472;2024-01-15T14:56:57;1.03;80.50
79491;SHT31;73788;53.048;18.472;2024-01-15T14:59:24;1.06;80.50
79491;SHT31;73788;53.048;18.472;2024-01-15T15:01:52;1.03;80.50
79491;SHT31;73788;53.048;18.472;2024-01-15T15:04:20;1.00;80.46
79491;SHT31;73788;53.048;18.472;2024-01-15T15:06:47;0.92;80.40
79491;SHT31;73788;53.048;18.472;2024-01-15T15:09:14;0.85;80.40
79491;SHT31;73788;53.048;18.472;2024-01-15T15:11:42;0.77;80.39
79491;SHT31;73788;53.048;18.472;2024-01-15T15:14:09;0.70;80.32
79491;SHT31;73788;53.048;18.472;2024-01-15T15:16:37;0.59;80.30
79491;SHT31;73788;53.048;18.472;2024-01-15T15:19:04;0.51;80.29
79491;SHT31;73788;53.048;18.472;2024-01-15T15:21:31;0.45;80.28
79491;SHT31;73788;53.048;18.472;2024-01-15T15:23:59;0.41;80.21
79491;SHT31;73788;53.048;18.472;2024-01-15T15:26:27;0.38;80.21
79491;SHT31;73788;53.048;18.472;2024-01-15T15:28:54;0.38;80.20
79491;SHT31;73788;53.048;18.472;2024-01-15T15:31:21;0.42;80.20
79491;SHT31;73788;53.048;18.472;2024-01-15T15:33:49;0.45;80.19
79491;SHT31;73788;53.048;18.472;2024-01-15T15:36:16;0.46;80.19
79491;SHT31;73788;53.048;18.472;2024-01-15T15:38:43;0.48;80.16
79491;SHT31;73788;53.048;18.472;2024-01-15T15:41:10;0.48;80.10
79491;SHT31;73788;53.048;18.472;2024-01-15T15:43:38;0.49;80.12
79491;SHT31;73788;53.048;18.472;2024-01-15T15:46:05;0.53;80.10
79491;SHT31;73788;53.048;18.472;2024-01-15T15:48:33;0.54;80.10
79491;SHT31;73788;53.048;18.472;2024-01-15T15:51:01;0.52;80.10
79491;SHT31;73788;53.048;18.472;2024-01-15T15:53:29;0.49;80.08
79491;SHT31;73788;53.048;18.472;2024-01-15T15:55:57;0.47;80.06
79491;SHT31;73788;53.048;18.472;2024-01-15T15:58:25;0.48;80.01
79491;SHT31;73788;53.048;18.472;2024-01-15T16:00:52;0.47;80.00
79491;SHT31;73788;53.048;18.472;2024-01-15T16:03:20;0.44;80.00
79491;SHT31;73788;53.048;18.472;2024-01-15T16:05:47;0.44;79.99
79491;SHT31;73788;53.048;18.472;2024-01-15T16:08:14;0.42;79.97
79491;SHT31;73788;53.048;18.472;2024-01-15T16:10:41;0.37;79.90
79491;SHT31;73788;53.048;18.472;2024-01-15T16:13:10;0.30;79.90
79491;SHT31;73788;53.048;18.472;2024-01-15T16:15:37;0.21;79.88
79491;SHT31;73788;53.048;18.472;2024-01-15T16:18:05;0.17;79.84
79491;SHT31;73788;53.048;18.472;2024-01-15T16:20:33;0.11;79.81
79491;SHT31;73788;53.048;18.472;2024-01-15T16:23:00;0.08;79.80
79491;SHT31;73788;53.048;18.472;2024-01-15T16:25:31;0.08;79.80
79491;SHT31;73788;53.048;18.472;2024-01-15T16:27:59;0.04;79.78
79491;SHT31;73788;53.048;18.472;2024-01-15T16:30:26;-0.03;79.70
79491;SHT31;73788;53.048;18.472;2024-01-15T16:32:54;-0.11;79.70